createdAt,value
2018-09-21T00:00:03.966Z,16.80
2018-09-21T00:03:10.395Z,16.80
2018-09-21T00:06:14.751Z,16.80
2018-09-21T00:09:19.084Z,16.70
2018-09-21T00:12:23.397Z,16.70
2018-09-21T00:15:27.985Z,16.70
2018-09-21T00:18:32.354Z,16.70
2018-09-21T00:21:36.618Z,16.60
2018-09-21T00:24:41.006Z,16.60
2018-09-21T00:27:45.310Z,16.60
2018-09-21T00:30:49.847Z,16.60
2018-09-21T00:33:54.149Z,16.60
2018-09-21T00:36:58.476Z,16.70
2018-09-21T00:40:02.758Z,16.60
2018-09-21T00:43:07.105Z,16.60
2018-09-21T00:46:11.376Z,16.70
2018-09-21T00:49:15.612Z,16.70
2018-09-21T00:52:19.961Z,16.80
2018-09-21T00:55:24.281Z,16.80
2018-09-21T00:58:28.683Z,16.90
2018-09-21T01:01:33.004Z,16.90
2018-09-21T01:04:44.569Z,16.90
2018-09-21T01:07:48.845Z,16.90
2018-09-21T01:10:53.154Z,16.90
2018-09-21T01:13:57.460Z,16.90
2018-09-21T01:17:01.786Z,16.80
2018-09-21T01:20:06.074Z,16.80
2018-09-21T01:23:10.346Z,16.70
2018-09-21T01:26:14.608Z,16.70
2018-09-21T01:29:18.973Z,16.70
2018-09-21T01:32:23.273Z,16.70
2018-09-21T01:35:27.517Z,16.60
2018-09-21T01:38:32.150Z,16.70
2018-09-21T01:41:36.692Z,16.60
2018-09-21T01:44:40.992Z,16.70
2018-09-21T01:47:45.309Z,16.70
2018-09-21T01:50:49.575Z,16.60
2018-09-21T01:53:53.849Z,16.70
2018-09-21T01:56:58.115Z,16.70
2018-09-21T02:00:02.452Z,16.70
2018-09-21T02:03:06.793Z,16.70
2018-09-21T02:06:11.073Z,16.80
2018-09-21T02:09:15.426Z,16.90
2018-09-21T02:12:19.784Z,16.90
2018-09-21T02:15:24.067Z,16.90
2018-09-21T02:18:28.394Z,16.90
2018-09-21T02:21:32.661Z,17.00
2018-09-21T02:24:37.013Z,17.00
2018-09-21T02:27:41.231Z,17.00
2018-09-21T02:30:45.528Z,17.10
2018-09-21T02:33:49.781Z,17.10
2018-09-21T02:36:54.130Z,17.20
2018-09-21T02:39:58.386Z,17.30
2018-09-21T02:43:02.715Z,17.40
2018-09-21T02:46:07.080Z,17.50
2018-09-21T02:49:11.330Z,17.50
2018-09-21T02:52:15.671Z,17.50
2018-09-21T02:55:19.988Z,17.50
2018-09-21T02:58:24.301Z,17.40
2018-09-21T03:01:28.627Z,17.40
2018-09-21T03:04:32.960Z,17.40
2018-09-21T03:07:37.267Z,17.40
2018-09-21T03:10:41.609Z,17.40
2018-09-21T03:13:45.900Z,17.40
2018-09-21T03:16:50.232Z,17.30
2018-09-21T03:19:54.552Z,17.30
2018-09-21T03:22:58.884Z,17.30
2018-09-21T03:26:03.132Z,17.30
2018-09-21T03:29:07.400Z,17.30
2018-09-21T03:32:11.731Z,17.20
2018-09-21T03:35:16.115Z,17.30
2018-09-21T03:38:20.337Z,17.20
2018-09-21T03:41:24.681Z,17.20
2018-09-21T03:44:29.036Z,17.20
2018-09-21T03:47:33.533Z,17.20
2018-09-21T03:50:37.837Z,17.20
2018-09-21T03:53:42.156Z,17.10
2018-09-21T03:56:46.487Z,17.10
2018-09-21T03:59:50.797Z,17.10
2018-09-21T04:02:55.122Z,17.10
2018-09-21T04:05:59.377Z,17.10
2018-09-21T04:09:04.078Z,17.10
2018-09-21T04:12:08.331Z,17.10
2018-09-21T04:15:12.608Z,17.10
2018-09-21T04:18:16.889Z,17.10
2018-09-21T04:21:21.251Z,17.10
2018-09-21T04:24:25.561Z,17.10
2018-09-21T04:27:30.144Z,17.10
2018-09-21T04:30:34.514Z,17.10
2018-09-21T04:33:38.849Z,17.00
2018-09-21T04:36:43.142Z,17.10
2018-09-21T04:39:47.469Z,17.10
2018-09-21T04:42:51.837Z,17.10
2018-09-21T04:45:56.215Z,17.10
2018-09-21T04:49:00.478Z,17.10
2018-09-21T04:52:04.908Z,17.20
2018-09-21T04:55:09.276Z,17.20
2018-09-21T04:58:13.616Z,17.30
2018-09-21T05:01:17.913Z,17.30
2018-09-21T05:04:22.221Z,17.30
2018-09-21T05:07:26.546Z,17.20
2018-09-21T05:10:30.798Z,17.30
2018-09-21T05:13:35.156Z,17.30
2018-09-21T05:16:39.439Z,17.30
2018-09-21T05:19:43.810Z,17.40
2018-09-21T05:22:48.090Z,17.40
2018-09-21T05:25:52.458Z,17.40
2018-09-21T05:28:56.773Z,17.40
2018-09-21T05:32:01.124Z,17.50
2018-09-21T05:35:05.631Z,17.50
2018-09-21T05:38:09.931Z,17.50
2018-09-21T05:41:14.248Z,17.50
2018-09-21T05:44:18.567Z,17.60
2018-09-21T05:47:22.892Z,17.60
2018-09-21T05:50:27.686Z,17.60
2018-09-21T05:53:31.972Z,17.70
2018-09-21T05:56:36.293Z,17.70
2018-09-21T05:59:40.696Z,17.70
2018-09-21T06:02:45.628Z,17.70
2018-09-21T06:05:49.896Z,17.80
2018-09-21T06:08:54.278Z,17.80
2018-09-21T06:11:58.605Z,17.80
2018-09-21T06:15:03.057Z,17.80
2018-09-21T06:18:07.352Z,17.80
2018-09-21T06:21:11.706Z,17.80
2018-09-21T06:24:15.980Z,17.90
2018-09-21T06:27:20.286Z,18.00
2018-09-21T06:30:24.567Z,18.10
2018-09-21T06:33:28.889Z,18.20
2018-09-21T06:36:33.208Z,18.10
2018-09-21T06:39:37.635Z,18.20
2018-09-21T06:42:42.003Z,18.30
2018-09-21T06:45:46.321Z,18.40
2018-09-21T06:48:50.570Z,18.40
2018-09-21T06:51:54.812Z,18.40
2018-09-21T06:54:59.166Z,18.40
2018-09-21T06:58:03.497Z,18.40
2018-09-21T07:01:07.797Z,18.50
2018-09-21T07:04:12.101Z,18.60
2018-09-21T07:07:16.454Z,18.60
2018-09-21T07:10:20.703Z,18.60
2018-09-21T07:13:25.101Z,18.60
2018-09-21T07:16:29.371Z,18.70
2018-09-21T07:19:33.729Z,18.70
2018-09-21T07:22:38.028Z,18.80
2018-09-21T07:25:42.301Z,18.90
2018-09-21T07:28:46.655Z,19.00
2018-09-21T07:31:50.984Z,19.00
2018-09-21T07:34:55.863Z,19.10
2018-09-21T07:38:00.129Z,19.10
2018-09-21T07:41:04.462Z,19.10
2018-09-21T07:44:08.836Z,19.20
2018-09-21T07:47:13.178Z,19.20
2018-09-21T07:50:17.525Z,19.30
2018-09-21T07:53:21.850Z,19.30
2018-09-21T07:56:26.092Z,19.40
2018-09-21T07:59:30.634Z,19.50
2018-09-21T08:02:34.885Z,19.60
2018-09-21T08:05:39.204Z,19.70
2018-09-21T08:08:43.516Z,19.80
2018-09-21T08:11:47.775Z,19.90
2018-09-21T08:14:52.053Z,19.90
2018-09-21T08:17:56.344Z,19.90
2018-09-21T08:21:00.696Z,19.90
2018-09-21T08:24:05.538Z,20.00
2018-09-21T08:27:11.440Z,20.00
2018-09-21T08:30:15.676Z,20.10
2018-09-21T08:33:20.104Z,20.10
2018-09-21T08:36:24.806Z,20.20
2018-09-21T08:39:29.160Z,20.20
2018-09-21T08:42:33.626Z,20.20
2018-09-21T08:45:38.078Z,20.20
2018-09-21T08:48:42.298Z,20.20
2018-09-21T08:51:46.654Z,20.00
2018-09-21T08:54:51.293Z,19.90
2018-09-21T08:57:55.610Z,19.70
2018-09-21T09:00:59.960Z,19.30
2018-09-21T09:04:04.351Z,18.90
2018-09-21T09:07:08.836Z,18.40
2018-09-21T09:10:13.185Z,18.00
2018-09-21T09:13:18.105Z,17.70
2018-09-21T09:16:22.374Z,17.50
2018-09-21T09:19:26.777Z,17.30
2018-09-21T09:22:31.090Z,17.20
2018-09-21T09:25:35.529Z,17.20
2018-09-21T09:28:40.160Z,17.00
2018-09-21T09:31:44.446Z,16.90
2018-09-21T09:34:48.848Z,16.70
2018-09-21T09:37:53.196Z,16.50
2018-09-21T09:40:57.473Z,16.30
2018-09-21T09:44:01.868Z,15.70
2018-09-21T09:47:06.562Z,15.10
2018-09-21T09:50:10.908Z,14.80
2018-09-21T09:53:15.321Z,14.50
2018-09-21T09:56:19.643Z,14.40
2018-09-21T09:59:23.965Z,14.30
2018-09-21T10:02:28.280Z,14.20
2018-09-21T10:05:32.891Z,14.10
2018-09-21T10:08:37.293Z,14.20
2018-09-21T10:11:42.072Z,14.20
2018-09-21T10:14:46.509Z,14.30
2018-09-21T10:17:50.773Z,14.30
2018-09-21T10:20:55.460Z,14.30
2018-09-21T10:24:00.019Z,14.30
2018-09-21T10:27:04.710Z,14.30
2018-09-21T10:30:08.959Z,14.40
2018-09-21T10:33:13.734Z,14.50
2018-09-21T10:36:18.037Z,14.50
2018-09-21T10:39:22.456Z,14.60
2018-09-21T10:42:26.635Z,14.60
2018-09-21T10:45:30.992Z,14.60
2018-09-21T10:48:35.289Z,14.50
2018-09-21T10:51:39.722Z,14.40
2018-09-21T10:54:44.037Z,14.40
2018-09-21T10:57:48.344Z,14.30
2018-09-21T11:00:52.698Z,14.40
2018-09-21T11:03:57.111Z,14.50
2018-09-21T11:07:01.475Z,14.60
2018-09-21T11:10:06.001Z,14.70
2018-09-21T11:13:10.325Z,14.70
2018-09-21T11:16:14.838Z,14.80
2018-09-21T11:19:19.211Z,14.80
2018-09-21T11:22:23.546Z,14.90
2018-09-21T11:25:27.842Z,14.90
2018-09-21T11:28:32.158Z,14.90
2018-09-21T11:31:36.491Z,14.80
2018-09-21T11:34:40.762Z,14.80
2018-09-21T11:37:45.138Z,14.90
2018-09-21T11:40:49.569Z,14.90
2018-09-21T11:43:53.873Z,14.90
2018-09-21T11:46:58.170Z,14.90
2018-09-21T11:50:02.406Z,15.10
2018-09-21T11:53:06.828Z,15.10
2018-09-21T11:56:11.093Z,15.30
2018-09-21T11:59:15.588Z,15.30
2018-09-21T12:02:19.874Z,15.40
2018-09-21T12:05:24.159Z,15.40
2018-09-21T12:08:28.535Z,15.50
2018-09-21T12:11:32.978Z,15.60
2018-09-21T12:14:37.265Z,15.60
2018-09-21T12:17:41.572Z,15.50
2018-09-21T12:20:45.914Z,15.60
2018-09-21T12:23:50.230Z,15.80
2018-09-21T12:26:54.516Z,15.80
2018-09-21T12:29:58.805Z,15.80
2018-09-21T12:33:03.197Z,15.70
2018-09-21T12:36:08.884Z,15.70
2018-09-21T12:39:14.318Z,15.50
2018-09-21T12:42:18.715Z,15.30
2018-09-21T12:45:23.172Z,15.30
2018-09-21T12:48:27.529Z,15.40
2018-09-21T12:51:32.798Z,15.30
2018-09-21T12:54:37.355Z,15.30
2018-09-21T12:57:41.761Z,15.30
2018-09-21T13:00:51.044Z,15.30
2018-09-21T13:03:55.316Z,15.30
2018-09-21T13:06:59.686Z,15.40
2018-09-21T13:10:04.037Z,15.40
2018-09-21T13:13:08.412Z,15.50
2018-09-21T13:16:12.776Z,15.60
2018-09-21T13:19:17.074Z,15.50
2018-09-21T13:22:21.404Z,15.20
2018-09-21T13:25:25.782Z,15.00
2018-09-21T13:28:30.104Z,14.80
2018-09-21T13:31:34.440Z,14.80
2018-09-21T13:34:38.784Z,14.70
2018-09-21T13:37:43.081Z,14.40
2018-09-21T13:40:47.387Z,14.30
2018-09-21T13:43:51.658Z,14.30
2018-09-21T13:46:55.947Z,14.20
2018-09-21T13:50:00.256Z,14.20
2018-09-21T13:53:04.577Z,14.40
2018-09-21T13:56:08.947Z,14.60
2018-09-21T13:59:13.385Z,14.80
2018-09-21T14:02:17.637Z,14.90
2018-09-21T14:05:21.928Z,15.00
2018-09-21T14:08:26.172Z,14.90
2018-09-21T14:11:30.466Z,14.70
2018-09-21T14:14:34.768Z,14.60
2018-09-21T14:17:39.050Z,14.60
2018-09-21T14:20:43.372Z,14.70
2018-09-21T14:23:47.684Z,14.60
2018-09-21T14:26:51.979Z,14.60
2018-09-21T14:29:57.210Z,14.60
2018-09-21T14:33:01.541Z,14.50
2018-09-21T14:36:05.816Z,14.40
2018-09-21T14:39:11.576Z,14.40
2018-09-21T14:42:15.953Z,14.40
2018-09-21T14:45:20.301Z,14.40
2018-09-21T14:48:24.586Z,14.50
2018-09-21T14:51:28.923Z,14.60
2018-09-21T14:54:33.257Z,14.60
2018-09-21T14:57:37.532Z,14.80
2018-09-21T15:00:41.892Z,14.90
2018-09-21T15:03:46.251Z,14.80
2018-09-21T15:06:50.508Z,14.70
2018-09-21T15:09:54.850Z,14.60
2018-09-21T15:12:59.170Z,14.70
2018-09-21T15:16:03.559Z,14.50
2018-09-21T15:19:07.860Z,14.30
2018-09-21T15:22:12.262Z,14.40
2018-09-21T15:25:16.499Z,14.30
2018-09-21T15:28:20.782Z,14.10
2018-09-21T15:31:25.130Z,14.00
2018-09-21T15:34:29.445Z,13.60
2018-09-21T15:37:33.801Z,13.30
2018-09-21T15:40:39.516Z,13.20
2018-09-21T15:43:43.928Z,13.40
2018-09-21T15:46:48.285Z,13.60
2018-09-21T15:49:52.592Z,13.80
2018-09-21T15:52:56.949Z,14.00
2018-09-21T15:56:01.515Z,14.10
2018-09-21T15:59:05.816Z,14.10
2018-09-21T16:02:10.105Z,13.90
2018-09-21T16:05:14.409Z,13.80
2018-09-21T16:08:18.725Z,13.60
2018-09-21T16:11:23.020Z,13.60
2018-09-21T16:14:27.403Z,13.40
2018-09-21T16:17:31.700Z,13.30
2018-09-21T16:20:36.002Z,13.20
2018-09-21T16:23:40.293Z,13.20
2018-09-21T16:26:44.572Z,13.20
2018-09-21T16:29:48.842Z,13.10
2018-09-21T16:32:53.217Z,12.20
2018-09-21T16:35:57.548Z,11.50
2018-09-21T16:39:02.079Z,11.00
2018-09-21T16:42:06.360Z,10.70
2018-09-21T16:45:10.698Z,10.50
2018-09-21T16:48:15.018Z,10.40
2018-09-21T16:51:19.431Z,10.30
2018-09-21T16:54:23.947Z,10.40
2018-09-21T16:57:28.248Z,10.50
2018-09-21T17:00:32.573Z,10.50
2018-09-21T17:03:36.847Z,10.60
2018-09-21T17:06:41.149Z,10.70
2018-09-21T17:09:47.699Z,10.80
2018-09-21T17:12:51.958Z,10.90
2018-09-21T17:15:56.319Z,11.00
2018-09-21T17:19:07.905Z,11.10
2018-09-21T17:22:12.343Z,11.10
2018-09-21T17:25:16.686Z,11.10
2018-09-21T17:28:21.071Z,11.00
2018-09-21T17:31:25.411Z,10.90
2018-09-21T17:34:29.693Z,10.90
2018-09-21T17:37:34.777Z,11.00
2018-09-21T17:40:40.335Z,11.00
2018-09-21T17:43:46.173Z,11.10
2018-09-21T17:46:52.099Z,11.10
2018-09-21T17:49:58.052Z,11.00
2018-09-21T17:53:03.862Z,10.90
2018-09-21T17:56:09.247Z,10.80
2018-09-21T17:59:14.237Z,10.90
2018-09-21T18:02:19.510Z,10.90
2018-09-21T18:05:24.500Z,10.90
2018-09-21T18:08:29.384Z,10.90
2018-09-21T18:11:34.488Z,11.00
2018-09-21T18:14:39.154Z,11.00
2018-09-21T18:17:44.173Z,11.10
2018-09-21T18:20:48.892Z,11.10
2018-09-21T18:23:53.424Z,11.10
2018-09-21T18:26:58.256Z,11.10
2018-09-21T18:30:02.793Z,11.20
2018-09-21T18:33:07.476Z,11.30
2018-09-21T18:36:12.272Z,11.40
2018-09-21T18:39:17.047Z,11.50
2018-09-21T18:42:21.996Z,11.60
2018-09-21T18:45:26.617Z,11.50
2018-09-21T18:48:31.423Z,11.50
2018-09-21T18:51:36.148Z,11.50
2018-09-21T18:54:41.018Z,11.40
2018-09-21T18:57:45.808Z,11.10
2018-09-21T19:00:50.736Z,10.90
2018-09-21T19:03:55.318Z,10.70
2018-09-21T19:06:59.899Z,10.60
2018-09-21T19:10:04.666Z,10.60
2018-09-21T19:13:09.466Z,10.50
2018-09-21T19:16:14.205Z,10.50
2018-09-21T19:19:18.853Z,10.50
2018-09-21T19:22:23.828Z,10.40
2018-09-21T19:25:28.608Z,10.40
2018-09-21T19:28:33.309Z,10.30
2018-09-21T19:31:38.107Z,10.30
2018-09-21T19:34:42.996Z,10.30
2018-09-21T19:37:49.021Z,10.30
2018-09-21T19:40:54.197Z,10.30
2018-09-21T19:43:59.091Z,10.30
2018-09-21T19:47:03.922Z,10.30
2018-09-21T19:50:08.923Z,10.20
2018-09-21T19:53:13.701Z,10.10
2018-09-21T19:56:21.051Z,10.10
2018-09-21T19:59:25.854Z,10.00
2018-09-21T20:02:30.623Z,9.90
2018-09-21T20:05:35.389Z,9.90
2018-09-21T20:08:40.113Z,9.90
2018-09-21T20:11:44.904Z,9.90
2018-09-21T20:14:49.701Z,10.00
2018-09-21T20:17:54.408Z,10.10
2018-09-21T20:20:59.157Z,10.10
2018-09-21T20:24:04.304Z,10.10
2018-09-21T20:27:09.044Z,10.20
2018-09-21T20:30:18.820Z,10.20
2018-09-21T20:33:33.270Z,10.20
2018-09-21T20:36:37.726Z,10.30
2018-09-21T20:39:42.138Z,10.30
2018-09-21T20:42:46.649Z,10.30
2018-09-21T20:45:51.219Z,10.20
2018-09-21T20:48:55.573Z,10.20
2018-09-21T20:51:59.971Z,10.20
2018-09-21T20:55:04.366Z,10.20
2018-09-21T20:58:08.900Z,10.20
2018-09-21T21:01:13.300Z,10.20
2018-09-21T21:04:17.630Z,10.20
2018-09-21T21:07:21.954Z,10.30
2018-09-21T21:10:26.252Z,10.30
2018-09-21T21:13:30.622Z,10.30
2018-09-21T21:16:35.114Z,10.30
2018-09-21T21:19:40.231Z,10.30
2018-09-21T21:22:44.894Z,10.30
2018-09-21T21:25:49.323Z,10.30
2018-09-21T21:28:53.690Z,10.40
2018-09-21T21:31:57.995Z,10.40
2018-09-21T21:35:02.357Z,10.50
2018-09-21T21:38:06.849Z,10.40
2018-09-21T21:41:11.152Z,10.40
2018-09-21T21:44:15.507Z,10.40
2018-09-21T21:47:19.926Z,10.40
2018-09-21T21:50:24.236Z,10.40
2018-09-21T21:53:28.542Z,10.30
2018-09-21T21:56:32.848Z,10.30
2018-09-21T21:59:37.164Z,10.20
2018-09-21T22:02:41.465Z,10.20
2018-09-21T22:05:45.790Z,10.10
2018-09-21T22:08:50.173Z,10.10
2018-09-21T22:11:59.931Z,10.00
2018-09-21T22:15:04.221Z,10.00
2018-09-21T22:18:08.493Z,10.00
2018-09-21T22:21:12.745Z,10.00
2018-09-21T22:24:17.039Z,10.00
2018-09-21T22:27:21.299Z,10.00
2018-09-21T22:30:25.611Z,10.00
2018-09-21T22:33:29.989Z,10.00
2018-09-21T22:36:34.345Z,9.90
2018-09-21T22:39:38.592Z,9.90
2018-09-21T22:42:42.901Z,10.00
2018-09-21T22:45:47.244Z,9.90
2018-09-21T22:48:52.168Z,9.90
2018-09-21T22:51:56.455Z,9.90
2018-09-21T22:55:00.746Z,9.90
2018-09-21T22:58:05.128Z,9.90
2018-09-21T23:01:10.209Z,9.90
2018-09-21T23:04:14.632Z,10.00
2018-09-21T23:07:18.914Z,10.00
2018-09-21T23:10:23.486Z,10.00
2018-09-21T23:13:27.837Z,10.00
2018-09-21T23:16:32.167Z,10.00
2018-09-21T23:19:36.475Z,10.00
2018-09-21T23:22:40.807Z,9.90
2018-09-21T23:25:45.305Z,9.90
2018-09-21T23:28:49.648Z,9.90
2018-09-21T23:31:54.044Z,9.90
2018-09-21T23:34:58.286Z,9.90
2018-09-21T23:38:02.558Z,9.90
2018-09-21T23:41:07.130Z,9.80
2018-09-21T23:44:11.607Z,9.80
2018-09-21T23:47:15.883Z,9.80
2018-09-21T23:50:20.205Z,9.80
2018-09-21T23:53:24.572Z,9.80
2018-09-21T23:56:28.872Z,9.80
2018-09-21T23:59:33.157Z,9.80
